Terminal Aerodrome Forecast
Issued by NWS Blacksburg, VA

Current Version | Previous Version | Graphics & Text | Print | Product List | Glossary On
Versions: 1 2 3 4 5 6 7 8 9 10 11 12 13 14 15 16 17 18 19 20 21 22 23 24
631
FTUS41 KRNK 242348
TAFBLF
TAF
KBLF 242348Z 2500/2524 VRB03KT P6SM SCT090
     FM250600 08004KT P6SM BKN030
     FM250800 11005KT P6SM OVC015
      TEMPO 2509/2513 4SM BR OVC009
     FM251800 12006KT P6SM OVC023=

USA.gov is the U.S. government's official web portal to all federal, state and local government web resources and services.